Main page
METAR-TAF:

METAR-TAF

Airports :

Malé, Hulhule Island, Maldives

Velana International Airport

latitude: 04-12N, longitude: 073-32E, elevation: 2 m

Current weather observation

The report was made 1 hour and 7 minutes ago, at 08:00 UTC
Wind 6 kt from the North/Northwest
Temperature 30°C
Humidity 79%
Pressure 1010 hPa
Visibility 10 km or more
Few clouds at a height of 1800 ft, Towering cumulus.
Broken clouds at a height of 28000 ft

METAR: VRMM 230800Z 34006KT 9999 FEW018TCU BKN280 30/26 Q1010 NOSIG

Time: 14:07 (09:07 UTC)

Forecast

The report was made 4 hours and 7 minutes ago, at 05:00 UTC
Forecast valid from 23 at 06 UTC to 24 at 12 UTC
Wind 11 kt from the Northwest
Visibility 10 km or more
Few clouds at a height of 1800 ft, Towering cumulus.
Temporary
from 23 at 08 UTC to 23 at 14 UTC
Few clouds at a height of 1800 ft, Cumulonimbus.

TAF: VRMM 230500Z 2306/2412 32011KT 9999 FEW018TCU TEMPO 2308/2314 FEW018CB

Weather observations and forecasts of more than 4000 airports (METAR and TAF reports).

The available stations are represented by yellow and red dots on the map.

Hover mouse over dot to see the name of the station.

Then click to see weather observations and forecasts.

To change the map : click on the green buttons with a black cross to zoom in, on the green button with a dash to zoom out, or on the green arrows for adjacent maps.


METAR-TAF: